createdAt,value
2023-03-06T00:00:31.963Z,100400.38
2023-03-06T00:02:58.406Z,100397.53
2023-03-06T00:05:24.832Z,100396.13
2023-03-06T00:07:51.283Z,100394.88
2023-03-06T00:10:23.088Z,100384.53
2023-03-06T00:12:52.538Z,100392.78
2023-03-06T00:15:19.378Z,100379.91
2023-03-06T00:17:45.742Z,100390.59
2023-03-06T00:20:13.284Z,100384.97
2023-03-06T00:22:40.559Z,100374.28
2023-03-06T00:25:08.708Z,100372.63
2023-03-06T00:27:35.235Z,100371.72
2023-03-06T00:30:01.941Z,100376.06
2023-03-06T00:32:28.921Z,100372.19
2023-03-06T00:34:56.199Z,100366.59
2023-03-06T00:37:24.315Z,100368.41
2023-03-06T00:39:50.936Z,100361.78
2023-03-06T00:42:18.529Z,100356.56
2023-03-06T00:44:45.528Z,100344.97
2023-03-06T00:47:12.844Z,100347.09
2023-03-06T00:49:39.505Z,100347.81
2023-03-06T00:52:05.931Z,100342.06
2023-03-06T00:54:32.314Z,100340.66
2023-03-06T00:56:58.676Z,100336.41
2023-03-06T00:59:25.050Z,100327.41
2023-03-06T01:01:51.430Z,100328.31
2023-03-06T01:04:17.814Z,100325.31
2023-03-06T01:06:44.170Z,100322.88
2023-03-06T01:09:10.766Z,100321.66
2023-03-06T01:11:38.269Z,100316.84
2023-03-06T01:14:05.258Z,100316.34
2023-03-06T01:16:31.967Z,100313.88
2023-03-06T01:18:58.966Z,100316.91
2023-03-06T01:21:25.651Z,100312.44
2023-03-06T01:23:52.180Z,100311.59
2023-03-06T01:26:18.850Z,100306.47
2023-03-06T01:28:45.373Z,100310.47
2023-03-06T01:31:11.967Z,100305.56
2023-03-06T01:33:38.393Z,100307.38
2023-03-06T01:36:07.691Z,100304.75
2023-03-06T01:38:35.896Z,100305.19
2023-03-06T01:41:03.488Z,100301.13
2023-03-06T01:43:38.378Z,100295.50
2023-03-06T01:46:41.852Z,100294.13
2023-03-06T01:49:22.167Z,100285.72
2023-03-06T01:52:00.636Z,100290.78
2023-03-06T01:54:29.498Z,100278.31
2023-03-06T01:57:33.659Z,100274.88
2023-03-06T02:00:06.951Z,100274.06
2023-03-06T02:02:33.544Z,100277.75
2023-03-06T02:05:02.577Z,100268.03
2023-03-06T02:07:29.741Z,100259.78
2023-03-06T02:09:56.698Z,100267.75
2023-03-06T02:12:23.526Z,100262.38
2023-03-06T02:14:50.164Z,100267.91
2023-03-06T02:17:19.034Z,100254.31
2023-03-06T02:20:03.717Z,100250.22
2023-03-06T02:22:39.949Z,100254.00
2023-03-06T02:25:40.945Z,100250.28
2023-03-06T02:28:11.069Z,100241.13
2023-03-06T02:30:38.491Z,100244.56
2023-03-06T02:33:05.801Z,100241.97
2023-03-06T02:35:34.786Z,100237.88
2023-03-06T02:38:06.508Z,100233.34
2023-03-06T02:40:32.849Z,100236.44
2023-03-06T02:42:59.565Z,100235.78
2023-03-06T02:45:40.570Z,100232.28
2023-03-06T02:48:07.561Z,100231.56
2023-03-06T02:50:33.950Z,100231.56
2023-03-06T02:53:00.344Z,100234.16
2023-03-06T02:55:26.895Z,100230.88
2023-03-06T02:57:53.338Z,100230.06
2023-03-06T03:00:19.942Z,100221.88
2023-03-06T03:02:46.568Z,100223.38
2023-03-06T03:05:12.922Z,100230.50
2023-03-06T03:07:39.446Z,100226.06
2023-03-06T03:10:06.418Z,100232.59
2023-03-06T03:12:33.435Z,100226.13
2023-03-06T03:14:59.798Z,100222.09
2023-03-06T03:17:26.182Z,100217.09
2023-03-06T03:19:52.590Z,100215.72
2023-03-06T03:22:19.566Z,100216.16
2023-03-06T03:24:46.476Z,100215.94
2023-03-06T03:27:13.738Z,100214.16
2023-03-06T03:29:40.788Z,100208.34
2023-03-06T03:32:07.515Z,100213.31
2023-03-06T03:34:33.975Z,100218.47
2023-03-06T03:37:00.408Z,100202.16
2023-03-06T03:39:26.792Z,100203.31
2023-03-06T03:41:53.159Z,100199.28
2023-03-06T03:44:19.636Z,100197.88
2023-03-06T03:46:46.090Z,100193.25
2023-03-06T03:49:12.682Z,100197.44
2023-03-06T03:51:39.288Z,100195.06
2023-03-06T03:54:06.731Z,100184.34
2023-03-06T03:56:34.155Z,100176.97
2023-03-06T03:59:00.874Z,100171.09
2023-03-06T04:01:27.481Z,100170.16
2023-03-06T04:03:54.326Z,100173.44
2023-03-06T04:06:20.741Z,100171.50
2023-03-06T04:08:47.125Z,100170.66
2023-03-06T04:11:13.473Z,100174.25
2023-03-06T04:13:39.880Z,100173.03
2023-03-06T04:16:06.737Z,100172.75
2023-03-06T04:18:33.390Z,100164.72
2023-03-06T04:20:59.826Z,100167.69
2023-03-06T04:23:27.772Z,100162.78
2023-03-06T04:25:54.294Z,100157.94
2023-03-06T04:28:21.355Z,100156.84
2023-03-06T04:30:47.764Z,100153.78
2023-03-06T04:33:14.223Z,100148.91
2023-03-06T04:35:40.835Z,100150.53
2023-03-06T04:38:07.187Z,100147.25
2023-03-06T04:40:36.116Z,100143.69
2023-03-06T04:43:03.607Z,100140.94
2023-03-06T04:45:31.065Z,100139.59
2023-03-06T04:47:58.475Z,100132.53
2023-03-06T04:50:25.741Z,100126.22
2023-03-06T04:52:52.289Z,100125.09
2023-03-06T04:55:19.833Z,100136.03
2023-03-06T04:57:47.408Z,100130.59
2023-03-06T05:00:20.050Z,100127.56
2023-03-06T05:02:49.103Z,100133.19
2023-03-06T05:05:17.913Z,100128.81
2023-03-06T05:07:44.517Z,100130.47
2023-03-06T05:10:19.041Z,100130.59
2023-03-06T05:12:45.665Z,100126.66
2023-03-06T05:15:12.649Z,100124.91
2023-03-06T05:17:42.380Z,100130.75
2023-03-06T05:20:11.065Z,100137.44
2023-03-06T05:22:37.587Z,100132.53
2023-03-06T05:25:04.911Z,100133.19
2023-03-06T05:27:31.319Z,100133.44
2023-03-06T05:29:57.969Z,100133.59
2023-03-06T05:32:24.447Z,100126.31
2023-03-06T05:34:51.060Z,100126.16
2023-03-06T05:37:17.433Z,100133.53
2023-03-06T05:39:44.139Z,100124.66
2023-03-06T05:42:10.549Z,100128.22
2023-03-06T05:44:37.271Z,100129.88
2023-03-06T05:47:03.825Z,100132.19
2023-03-06T05:49:35.100Z,100125.19
2023-03-06T05:52:03.966Z,100120.81
2023-03-06T05:54:32.199Z,100131.03
2023-03-06T05:56:58.938Z,100121.78
2023-03-06T05:59:28.323Z,100121.13
2023-03-06T06:01:56.063Z,100121.56
2023-03-06T06:04:23.991Z,100115.22
2023-03-06T06:06:55.730Z,100114.56
2023-03-06T06:09:22.464Z,100112.13
2023-03-06T06:11:57.671Z,100110.72
2023-03-06T06:14:24.268Z,100113.97
2023-03-06T06:16:51.597Z,100110.50
2023-03-06T06:19:20.913Z,100117.81
2023-03-06T06:21:49.243Z,100119.31
2023-03-06T06:24:17.597Z,100112.78
2023-03-06T06:26:44.893Z,100109.66
2023-03-06T06:29:12.299Z,100110.34
2023-03-06T06:31:39.439Z,100113.31
2023-03-06T06:34:06.703Z,100117.25
2023-03-06T06:36:33.379Z,100116.59
2023-03-06T06:38:59.756Z,100116.13
2023-03-06T06:41:42.720Z,100115.81
2023-03-06T06:44:15.390Z,100115.66
2023-03-06T06:49:32.818Z,100118.94
2023-03-06T06:51:59.645Z,100114.28
2023-03-06T06:54:26.432Z,100116.66
2023-03-06T06:56:53.009Z,100123.47
2023-03-06T06:59:19.556Z,100115.97
2023-03-06T07:01:46.058Z,100116.31
2023-03-06T07:04:13.710Z,100121.25
2023-03-06T07:06:40.955Z,100112.56
2023-03-06T07:09:07.387Z,100121.69
2023-03-06T07:11:33.973Z,100121.34
2023-03-06T07:14:01.757Z,100120.50
2023-03-06T07:16:28.213Z,100123.34
2023-03-06T07:18:54.893Z,100121.41
2023-03-06T07:21:21.328Z,100120.84
2023-03-06T07:23:47.688Z,100133.84
2023-03-06T07:26:14.074Z,100130.13
2023-03-06T07:28:51.968Z,100124.50
2023-03-06T07:31:22.052Z,100128.31
2023-03-06T07:33:49.865Z,100123.59
2023-03-06T07:36:17.098Z,100126.72
2023-03-06T07:38:43.618Z,100133.56
2023-03-06T07:41:13.452Z,100123.84
2023-03-06T07:43:44.313Z,100131.03
2023-03-06T07:46:12.690Z,100120.94
2023-03-06T07:48:39.472Z,100132.25
2023-03-06T07:51:17.397Z,100130.31
2023-03-06T07:53:44.345Z,100137.13
2023-03-06T07:56:11.860Z,100134.09
2023-03-06T07:58:40.926Z,100127.47
2023-03-06T08:01:12.763Z,100127.16
2023-03-06T08:03:39.401Z,100129.25
2023-03-06T08:06:11.706Z,100120.34
2023-03-06T08:08:40.279Z,100136.84
2023-03-06T08:11:08.902Z,100128.88
2023-03-06T08:13:35.839Z,100121.28
2023-03-06T08:16:02.985Z,100125.34
2023-03-06T08:18:29.661Z,100122.91
2023-03-06T08:21:24.593Z,100122.75
2023-03-06T08:23:51.384Z,100130.78
2023-03-06T08:26:23.518Z,100117.25
2023-03-06T08:28:52.315Z,100120.56
2023-03-06T08:31:37.214Z,100123.75
2023-03-06T08:34:09.905Z,100124.69
2023-03-06T08:36:36.890Z,100113.25
2023-03-06T08:39:04.497Z,100127.63
2023-03-06T08:41:30.964Z,100123.94
2023-03-06T08:43:57.402Z,100123.97
2023-03-06T08:46:25.813Z,100121.09
2023-03-06T08:48:52.499Z,100120.13
2023-03-06T08:51:19.917Z,100118.00
2023-03-06T08:53:47.011Z,100120.59
2023-03-06T08:56:24.850Z,100115.31
2023-03-06T08:58:52.799Z,100109.94
2023-03-06T09:01:25.462Z,100114.38
2023-03-06T09:03:56.439Z,100108.25
2023-03-06T09:06:23.599Z,100117.31
2023-03-06T09:08:54.044Z,100108.38
2023-03-06T09:11:21.710Z,100114.63
2023-03-06T09:13:48.151Z,100117.25
2023-03-06T09:16:14.547Z,100121.78
2023-03-06T09:18:40.999Z,100115.53
2023-03-06T09:21:09.313Z,100126.78
2023-03-06T09:23:37.094Z,100120.25
2023-03-06T09:26:03.566Z,100122.03
2023-03-06T09:28:29.981Z,100127.06
2023-03-06T09:30:56.436Z,100124.66
2023-03-06T09:33:23.494Z,100122.50
2023-03-06T09:35:53.256Z,100128.41
2023-03-06T09:38:23.624Z,100124.47
2023-03-06T09:41:01.935Z,100128.28
2023-03-06T09:43:32.933Z,100122.00
2023-03-06T09:45:59.490Z,100121.25
2023-03-06T09:48:40.540Z,100114.09
2023-03-06T09:51:17.024Z,100108.72
2023-03-06T09:53:55.423Z,100114.59
2023-03-06T09:56:24.233Z,100112.63
2023-03-06T09:58:55.862Z,100125.25
2023-03-06T10:01:28.005Z,100122.78
2023-03-06T10:04:02.868Z,100129.00
2023-03-06T10:06:48.515Z,100126.94
2023-03-06T10:09:20.293Z,100126.81
2023-03-06T10:11:58.895Z,100123.75
2023-03-06T10:14:43.996Z,100120.78
2023-03-06T10:17:23.616Z,100121.31
2023-03-06T10:19:50.732Z,100127.00
2023-03-06T10:22:46.109Z,100116.94
2023-03-06T10:25:36.676Z,100115.31
2023-03-06T10:28:12.091Z,100114.06
2023-03-06T10:30:52.712Z,100107.91
2023-03-06T10:33:30.077Z,100104.69
2023-03-06T10:35:56.844Z,100109.38
2023-03-06T10:38:32.285Z,100111.66
2023-03-06T10:41:10.750Z,100110.84
2023-03-06T10:43:43.053Z,100111.47
2023-03-06T10:46:12.055Z,100116.31
2023-03-06T10:48:41.995Z,100111.59
2023-03-06T10:51:19.073Z,100109.69
2023-03-06T10:53:48.591Z,100119.59
2023-03-06T10:56:27.546Z,100118.56
2023-03-06T10:59:13.096Z,100131.75
2023-03-06T11:01:49.831Z,100129.28
2023-03-06T11:04:25.543Z,100130.59
2023-03-06T11:07:04.544Z,100133.53
2023-03-06T11:09:33.107Z,100145.59
2023-03-06T11:12:35.090Z,100135.47
2023-03-06T11:15:07.854Z,100136.16
2023-03-06T11:17:55.869Z,100136.16
2023-03-06T11:20:51.394Z,100135.03
2023-03-06T11:23:21.782Z,100136.50
2023-03-06T11:26:20.592Z,100143.63
2023-03-06T11:28:57.362Z,100145.59
2023-03-06T11:32:05.946Z,100139.22
2023-03-06T11:34:38.349Z,100135.34
2023-03-06T11:37:29.653Z,100136.78
2023-03-06T11:40:11.287Z,100134.56
2023-03-06T11:42:39.940Z,100120.44
2023-03-06T11:45:57.649Z,100123.88
2023-03-06T11:48:39.076Z,100130.69
2023-03-06T11:51:14.878Z,100124.03
2023-03-06T11:53:41.785Z,100123.25
2023-03-06T11:56:08.098Z,100119.78
2023-03-06T11:58:51.964Z,100110.84
2023-03-06T12:01:49.604Z,100106.25
2023-03-06T12:04:38.126Z,100104.16
2023-03-06T12:07:32.913Z,100098.41
2023-03-06T12:10:34.396Z,100094.59
2023-03-06T12:13:27.654Z,100088.59
2023-03-06T12:16:24.687Z,100082.88
2023-03-06T12:19:12.691Z,100089.38
2023-03-06T12:21:57.934Z,100090.06
2023-03-06T12:24:51.064Z,100080.72
2023-03-06T12:27:48.691Z,100078.31
2023-03-06T12:30:24.184Z,100073.28
2023-03-06T12:33:08.933Z,100073.78
2023-03-06T12:35:58.899Z,100072.25
2023-03-06T12:38:55.803Z,100058.91
2023-03-06T12:41:47.670Z,100068.13
2023-03-06T12:44:32.206Z,100071.03
2023-03-06T12:47:10.068Z,100064.41
2023-03-06T12:49:41.507Z,100060.16
2023-03-06T12:52:11.026Z,100060.97
2023-03-06T12:54:40.757Z,100063.97
2023-03-06T12:57:09.083Z,100057.72
2023-03-06T12:59:38.515Z,100054.25
2023-03-06T13:03:02.580Z,100055.97
2023-03-06T13:05:38.393Z,100047.41
2023-03-06T13:08:40.183Z,100045.03
2023-03-06T13:11:23.046Z,100045.41
2023-03-06T13:13:49.565Z,100050.28
2023-03-06T13:16:15.968Z,100048.06
2023-03-06T13:18:42.303Z,100046.19
2023-03-06T13:21:46.367Z,100044.09
2023-03-06T13:24:37.024Z,100045.72
2023-03-06T13:27:07.879Z,100036.69
2023-03-06T13:29:37.207Z,100033.22
2023-03-06T13:32:03.562Z,100032.84
2023-03-06T13:34:46.712Z,100027.63
2023-03-06T13:37:28.069Z,100027.78
2023-03-06T13:39:58.352Z,100035.69
2023-03-06T13:42:36.374Z,100032.81
2023-03-06T13:45:19.260Z,100035.56
2023-03-06T13:48:15.505Z,100022.75
2023-03-06T13:50:43.751Z,100029.91
2023-03-06T13:53:37.699Z,100040.59
2023-03-06T13:56:29.953Z,100030.56
2023-03-06T13:59:20.465Z,100028.66
2023-03-06T14:02:29.015Z,100026.91
2023-03-06T14:04:58.591Z,100019.94
2023-03-06T14:07:30.774Z,100029.78
2023-03-06T14:10:25.648Z,100022.94
2023-03-06T14:12:52.135Z,100021.38
2023-03-06T14:15:46.437Z,100015.97
2023-03-06T14:18:12.810Z,100014.25
2023-03-06T14:20:39.189Z,100017.84
2023-03-06T14:23:20.840Z,100009.44
2023-03-06T14:25:53.830Z,100006.31
2023-03-06T14:28:29.258Z,100003.00
2023-03-06T14:30:57.533Z,100006.41
2023-03-06T14:33:30.343Z,99997.84
2023-03-06T14:36:00.648Z,100004.75
2023-03-06T14:38:30.296Z,100005.66
2023-03-06T14:40:58.007Z,100004.66
2023-03-06T14:43:27.757Z,100006.38
2023-03-06T14:46:06.433Z,100007.13
2023-03-06T14:48:44.498Z,100000.75
2023-03-06T14:51:20.944Z,100003.13
2023-03-06T14:53:49.996Z,99997.25
2023-03-06T14:56:22.323Z,100001.75
2023-03-06T14:58:59.788Z,99995.78
2023-03-06T15:01:40.118Z,99995.09
2023-03-06T15:04:25.024Z,99987.25
2023-03-06T15:06:52.321Z,99983.06
2023-03-06T15:09:33.945Z,99989.59
2023-03-06T15:12:02.138Z,99992.91
2023-03-06T15:14:34.008Z,99985.22
2023-03-06T15:17:18.754Z,99988.31
2023-03-06T15:19:47.156Z,99979.56
2023-03-06T15:22:40.239Z,99981.81
2023-03-06T15:25:09.707Z,99977.38
2023-03-06T15:27:36.141Z,99978.13
2023-03-06T15:30:23.002Z,99972.88
2023-03-06T15:32:49.594Z,99980.03
2023-03-06T15:35:27.481Z,99969.38
2023-03-06T15:37:54.468Z,99974.84
2023-03-06T15:40:23.591Z,99977.16
2023-03-06T15:42:50.611Z,99967.81
2023-03-06T15:45:19.978Z,99965.19
2023-03-06T15:47:48.061Z,99962.13
2023-03-06T15:50:19.769Z,99960.53
2023-03-06T15:52:46.995Z,99960.22
2023-03-06T15:55:15.083Z,99955.16
2023-03-06T15:57:48.140Z,99958.16
2023-03-06T16:00:27.591Z,99953.19
2023-03-06T16:02:56.289Z,99953.50
2023-03-06T16:05:23.497Z,99950.56
2023-03-06T16:07:50.260Z,99951.22
2023-03-06T16:10:22.295Z,99947.44
2023-03-06T16:12:53.955Z,99933.75
2023-03-06T16:15:28.880Z,99926.09
2023-03-06T16:17:56.455Z,99928.03
2023-03-06T16:20:28.923Z,99930.81
2023-03-06T16:22:56.418Z,99919.56
2023-03-06T16:25:24.908Z,99922.81
2023-03-06T16:27:59.779Z,99927.38
2023-03-06T16:30:30.083Z,99921.75
2023-03-06T16:32:57.275Z,99930.22
2023-03-06T16:35:24.575Z,99921.50
2023-03-06T16:37:51.481Z,99918.22
2023-03-06T16:40:25.554Z,99928.00
2023-03-06T16:42:55.031Z,99921.81
2023-03-06T16:45:22.975Z,99918.22
2023-03-06T16:47:49.436Z,99930.63
2023-03-06T16:50:28.003Z,99927.03
2023-03-06T16:52:55.697Z,99917.97
2023-03-06T16:55:23.409Z,99923.97
2023-03-06T16:57:49.944Z,99915.00
2023-03-06T17:00:19.067Z,99912.88
2023-03-06T17:02:48.372Z,99918.31
2023-03-06T17:05:15.650Z,99913.41
2023-03-06T17:07:42.092Z,99918.63
2023-03-06T17:10:12.407Z,99920.13
2023-03-06T17:12:39.205Z,99910.63
2023-03-06T17:15:06.992Z,99912.25
2023-03-06T17:17:33.661Z,99916.38
2023-03-06T17:20:00.221Z,99909.06
2023-03-06T17:22:27.305Z,99903.22
2023-03-06T17:24:54.159Z,99898.94
2023-03-06T17:27:22.347Z,99903.22
2023-03-06T17:29:48.813Z,99899.13
2023-03-06T17:32:15.264Z,99893.28
2023-03-06T17:34:41.812Z,99889.69
2023-03-06T17:37:08.239Z,99891.16
2023-03-06T17:39:37.010Z,99898.34
2023-03-06T17:42:04.608Z,99907.78
2023-03-06T17:44:33.642Z,99907.59
2023-03-06T17:47:00.580Z,99903.38
2023-03-06T17:49:27.099Z,99905.00
2023-03-06T17:51:54.955Z,99891.16
2023-03-06T17:54:21.333Z,99899.47
2023-03-06T17:56:47.797Z,99895.72
2023-03-06T17:59:14.715Z,99896.91
2023-03-06T18:01:41.199Z,99886.28
2023-03-06T18:04:07.659Z,99890.88
2023-03-06T18:06:34.534Z,99884.00
2023-03-06T18:09:01.249Z,99890.38
2023-03-06T18:11:28.248Z,99885.50
2023-03-06T18:13:54.791Z,99884.03
2023-03-06T18:16:23.677Z,99879.97
2023-03-06T18:18:55.064Z,99881.09
2023-03-06T18:21:22.829Z,99883.03
2023-03-06T18:23:49.726Z,99879.13
2023-03-06T18:26:22.766Z,99877.97
2023-03-06T18:28:53.236Z,99867.34
2023-03-06T18:31:25.495Z,99872.44
2023-03-06T18:33:53.446Z,99860.72
2023-03-06T18:36:21.453Z,99863.81
2023-03-06T18:38:48.040Z,99861.84
2023-03-06T18:41:14.438Z,99854.53
2023-03-06T18:43:40.852Z,99859.41
2023-03-06T18:46:07.896Z,99854.06
2023-03-06T18:48:34.539Z,99853.19
2023-03-06T18:51:09.285Z,99851.75
2023-03-06T18:53:36.393Z,99849.81
2023-03-06T18:56:03.437Z,99842.44
2023-03-06T18:58:29.989Z,99842.75
2023-03-06T19:00:59.214Z,99839.19
2023-03-06T19:03:25.696Z,99841.97
2023-03-06T19:05:52.192Z,99841.31
2023-03-06T19:08:18.796Z,99845.06
2023-03-06T19:10:46.288Z,99834.63
2023-03-06T19:13:13.513Z,99830.09
2023-03-06T19:15:48.575Z,99829.72
2023-03-06T19:18:17.973Z,99825.84
2023-03-06T19:20:44.831Z,99821.13
2023-03-06T19:23:11.412Z,99814.72
2023-03-06T19:25:37.821Z,99816.81
2023-03-06T19:28:04.617Z,99815.38
2023-03-06T19:30:31.149Z,99818.81
2023-03-06T19:32:57.690Z,99810.50
2023-03-06T19:35:26.003Z,99809.84
2023-03-06T19:37:53.270Z,99812.47
2023-03-06T19:40:20.138Z,99805.78
2023-03-06T19:42:46.722Z,99806.75
2023-03-06T19:45:13.116Z,99802.34
2023-03-06T19:47:39.475Z,99811.31
2023-03-06T19:50:06.415Z,99806.44
2023-03-06T19:52:36.361Z,99801.53
2023-03-06T19:55:02.774Z,99808.41
2023-03-06T19:57:29.148Z,99802.53
2023-03-06T19:59:57.553Z,99808.22
2023-03-06T20:02:27.078Z,99796.03
2023-03-06T20:04:54.398Z,99799.28
2023-03-06T20:07:21.380Z,99784.59
2023-03-06T20:09:48.145Z,99778.06
2023-03-06T20:12:15.036Z,99777.88
2023-03-06T20:14:42.396Z,99764.38
2023-03-06T20:17:08.793Z,99775.13
2023-03-06T20:19:35.287Z,99762.72
2023-03-06T20:22:01.784Z,99756.22
2023-03-06T20:24:28.188Z,99750.19
2023-03-06T20:26:57.411Z,99757.38
2023-03-06T20:29:28.226Z,99746.75
2023-03-06T20:31:56.414Z,99748.41
2023-03-06T20:34:23.504Z,99745.97
2023-03-06T20:36:50.319Z,99742.19
2023-03-06T20:39:18.802Z,99739.25
2023-03-06T20:41:46.703Z,99732.44
2023-03-06T20:44:15.803Z,99734.09
2023-03-06T20:46:42.528Z,99742.38
2023-03-06T20:49:10.429Z,99734.38
2023-03-06T20:51:39.082Z,99732.81
2023-03-06T20:54:07.503Z,99726.75
2023-03-06T20:56:35.424Z,99727.88
2023-03-06T20:59:02.295Z,99720.03
2023-03-06T21:01:40.998Z,99724.28
2023-03-06T21:04:10.056Z,99717.31
2023-03-06T21:06:37.549Z,99713.38
2023-03-06T21:09:06.036Z,99715.69
2023-03-06T21:11:34.531Z,99705.91
2023-03-06T21:14:01.038Z,99703.75
2023-03-06T21:16:28.993Z,99705.66
2023-03-06T21:18:56.336Z,99699.19
2023-03-06T21:21:26.009Z,99695.59
2023-03-06T21:23:52.444Z,99692.69
2023-03-06T21:26:21.364Z,99699.56
2023-03-06T21:28:48.347Z,99688.63
2023-03-06T21:31:17.084Z,99689.16
2023-03-06T21:33:44.265Z,99680.72
2023-03-06T21:36:11.159Z,99680.06
2023-03-06T21:38:37.559Z,99688.09
2023-03-06T21:41:18.446Z,99678.16
2023-03-06T21:43:44.872Z,99668.78
2023-03-06T21:46:11.767Z,99668.78
2023-03-06T21:48:38.319Z,99665.56
2023-03-06T21:51:07.175Z,99663.00
2023-03-06T21:53:33.799Z,99658.09
2023-03-06T21:56:03.814Z,99658.94
2023-03-06T21:58:30.679Z,99661.84
2023-03-06T22:00:57.174Z,99652.94
2023-03-06T22:03:23.893Z,99657.81
2023-03-06T22:05:51.898Z,99644.78
2023-03-06T22:08:21.314Z,99636.66
2023-03-06T22:10:48.929Z,99635.84
2023-03-06T22:13:15.991Z,99629.97
2023-03-06T22:15:53.006Z,99623.97
2023-03-06T22:18:19.421Z,99625.75
2023-03-06T22:20:45.833Z,99606.38
2023-03-06T22:23:12.268Z,99610.75
2023-03-06T22:25:38.770Z,99605.69
2023-03-06T22:28:05.162Z,99599.34
2023-03-06T22:30:31.598Z,99599.66
2023-03-06T22:32:58.378Z,99600.28
2023-03-06T22:35:24.889Z,99594.59
2023-03-06T22:37:51.259Z,99587.41
2023-03-06T22:40:17.752Z,99577.44
2023-03-06T22:42:44.134Z,99584.13
2023-03-06T22:45:11.055Z,99574.84
2023-03-06T22:47:37.985Z,99571.44
2023-03-06T22:50:06.130Z,99569.13
2023-03-06T22:52:33.421Z,99560.50
2023-03-06T22:54:59.799Z,99555.44
2023-03-06T22:57:26.276Z,99557.09
2023-03-06T22:59:52.705Z,99562.47
2023-03-06T23:02:19.117Z,99566.50
2023-03-06T23:04:52.244Z,99549.72
2023-03-06T23:07:20.445Z,99552.22
2023-03-06T23:09:47.055Z,99547.31
2023-03-06T23:12:13.507Z,99545.38
2023-03-06T23:14:39.903Z,99541.47
2023-03-06T23:17:06.344Z,99552.97
2023-03-06T23:19:32.783Z,99542.44
2023-03-06T23:21:59.225Z,99543.63
2023-03-06T23:24:25.659Z,99549.00
2023-03-06T23:26:52.023Z,99538.22
2023-03-06T23:29:18.422Z,99535.34
2023-03-06T23:31:44.886Z,99532.69
2023-03-06T23:34:11.567Z,99535.47
2023-03-06T23:36:37.923Z,99526.53
2023-03-06T23:39:04.398Z,99527.53
2023-03-06T23:41:30.792Z,99530.13
2023-03-06T23:43:58.326Z,99526.22
2023-03-06T23:46:24.817Z,99520.22
2023-03-06T23:48:52.176Z,99520.56
2023-03-06T23:51:21.172Z,99533.44
2023-03-06T23:53:52.771Z,99524.09
2023-03-06T23:56:19.144Z,99527.03
2023-03-06T23:58:45.661Z,99527.34
